sensor_id;sensor_type;location;lat;lon;timestamp;pressure;altitude;pressure_sealevel;temperature;humidity
82555;BME280;72219;48.186;11.554;2024-03-08T00:00:16;95623.59;;;14.77;44.72
82555;BME280;72219;48.186;11.554;2024-03-08T00:02:45;95634.84;;;14.78;44.80
82555;BME280;72219;48.186;11.554;2024-03-08T00:05:12;95619.22;;;14.70;44.73
82555;BME280;72219;48.186;11.554;2024-03-08T00:07:38;95624.13;;;14.73;44.68
82555;BME280;72219;48.186;11.554;2024-03-08T00:10:07;95620.06;;;14.70;44.64
82555;BME280;72219;48.186;11.554;2024-03-08T00:12:40;95625.75;;;14.74;45.13
82555;BME280;72219;48.186;11.554;2024-03-08T00:15:16;95634.03;;;14.77;44.75
82555;BME280;72219;48.186;11.554;2024-03-08T00:17:43;95624.44;;;14.78;44.62
82555;BME280;72219;48.186;11.554;2024-03-08T00:20:09;95616.31;;;14.73;44.62
82555;BME280;72219;48.186;11.554;2024-03-08T00:22:38;95621.00;;;14.77;44.75
82555;BME280;72219;48.186;11.554;2024-03-08T00:25:06;95629.00;;;14.76;44.45
82555;BME280;72219;48.186;11.554;2024-03-08T00:27:34;95624.13;;;14.73;44.86
82555;BME280;72219;48.186;11.554;2024-03-08T00:30:00;95620.84;;;14.71;44.59
82555;BME280;72219;48.186;11.554;2024-03-08T00:32:27;95614.03;;;14.70;44.85
82555;BME280;72219;48.186;11.554;2024-03-08T00:34:55;95614.84;;;14.70;44.86
82555;BME280;72219;48.186;11.554;2024-03-08T00:37:22;95614.69;;;14.72;44.89
82555;BME280;72219;48.186;11.554;2024-03-08T00:39:51;95597.75;;;14.59;44.66
82555;BME280;72219;48.186;11.554;2024-03-08T00:42:18;95604.13;;;14.65;44.95
82555;BME280;72219;48.186;11.554;2024-03-08T00:44:46;95604.78;;;14.67;44.65
82555;BME280;72219;48.186;11.554;2024-03-08T00:47:12;95600.19;;;14.69;44.73
82555;BME280;72219;48.186;11.554;2024-03-08T00:49:37;95587.97;;;14.61;44.92
82555;BME280;72219;48.186;11.554;2024-03-08T00:52:04;95579.34;;;14.61;44.49
82555;BME280;72219;48.186;11.554;2024-03-08T00:54:32;95582.47;;;14.65;44.68
82555;BME280;72219;48.186;11.554;2024-03-08T00:56:57;95592.56;;;14.68;44.37
82555;BME280;72219;48.186;11.554;2024-03-08T00:59:25;95585.88;;;14.65;44.89
82555;BME280;72219;48.186;11.554;2024-03-08T01:01:50;95571.72;;;14.59;44.65
82555;BME280;72219;48.186;11.554;2024-03-08T01:04:16;95579.34;;;14.61;44.69
82555;BME280;72219;48.186;11.554;2024-03-08T01:06:42;95567.31;;;14.60;45.01
82555;BME280;72219;48.186;11.554;2024-03-08T01:09:10;95565.56;;;14.52;45.11
82555;BME280;72219;48.186;11.554;2024-03-08T01:11:38;95574.16;;;14.61;44.73
82555;BME280;72219;48.186;11.554;2024-03-08T01:14:05;95561.31;;;14.59;44.79
82555;BME280;72219;48.186;11.554;2024-03-08T01:16:30;95564.88;;;14.58;44.79
82555;BME280;72219;48.186;11.554;2024-03-08T01:19:00;95543.13;;;14.51;44.66
82555;BME280;72219;48.186;11.554;2024-03-08T01:21:26;95560.03;;;14.55;44.65
82555;BME280;72219;48.186;11.554;2024-03-08T01:23:51;95549.28;;;14.50;45.05
82555;BME280;72219;48.186;11.554;2024-03-08T01:26:17;95561.78;;;14.55;44.54
82555;BME280;72219;48.186;11.554;2024-03-08T01:28:42;95538.56;;;14.45;44.63
82555;BME280;72219;48.186;11.554;2024-03-08T01:31:07;95531.72;;;14.44;44.85
82555;BME280;72219;48.186;11.554;2024-03-08T01:33:33;95547.66;;;14.49;44.96
82555;BME280;72219;48.186;11.554;2024-03-08T01:36:02;95537.75;;;14.44;44.58
82555;BME280;72219;48.186;11.554;2024-03-08T01:38:27;95541.00;;;14.46;44.85
82555;BME280;72219;48.186;11.554;2024-03-08T01:40:53;95529.28;;;14.42;44.91
82555;BME280;72219;48.186;11.554;2024-03-08T01:43:24;95533.22;;;14.38;44.76
82555;BME280;72219;48.186;11.554;2024-03-08T01:45:50;95532.06;;;14.41;44.97
82555;BME280;72219;48.186;11.554;2024-03-08T01:48:16;95535.97;;;14.45;44.93
82555;BME280;72219;48.186;11.554;2024-03-08T01:50:45;95535.63;;;14.48;44.81
82555;BME280;72219;48.186;11.554;2024-03-08T01:53:11;95536.28;;;14.50;44.75
82555;BME280;72219;48.186;11.554;2024-03-08T01:55:38;95526.50;;;14.44;44.64
82555;BME280;72219;48.186;11.554;2024-03-08T01:58:05;95507.97;;;14.47;44.95
82555;BME280;72219;48.186;11.554;2024-03-08T02:00:32;95509.28;;;14.43;44.65
82555;BME280;72219;48.186;11.554;2024-03-08T02:02:59;95494.50;;;14.35;44.72
82555;BME280;72219;48.186;11.554;2024-03-08T02:05:27;95504.72;;;14.45;44.49
82555;BME280;72219;48.186;11.554;2024-03-08T02:07:52;95490.25;;;14.42;44.75
82555;BME280;72219;48.186;11.554;2024-03-08T02:10:19;95489.28;;;14.43;44.85
82555;BME280;72219;48.186;11.554;2024-03-08T02:12:46;95486.88;;;14.34;44.75
82555;BME280;72219;48.186;11.554;2024-03-08T02:15:12;95493.03;;;14.41;44.79
82555;BME280;72219;48.186;11.554;2024-03-08T02:17:38;95483.44;;;14.33;44.73
82555;BME280;72219;48.186;11.554;2024-03-08T02:20:04;95488.97;;;14.38;44.77
82555;BME280;72219;48.186;11.554;2024-03-08T02:22:31;95490.59;;;14.39;44.77
82555;BME280;72219;48.186;11.554;2024-03-08T02:24:59;95484.75;;;14.29;44.76
82555;BME280;72219;48.186;11.554;2024-03-08T02:27:27;95487.31;;;14.37;44.80
82555;BME280;72219;48.186;11.554;2024-03-08T02:29:54;95490.09;;;14.36;44.99
82555;BME280;72219;48.186;11.554;2024-03-08T02:32:23;95490.09;;;14.36;44.90
82555;BME280;72219;48.186;11.554;2024-03-08T02:34:49;95488.66;;;14.33;44.78
82555;BME280;72219;48.186;11.554;2024-03-08T02:37:17;95481.97;;;14.30;44.71
82555;BME280;72219;48.186;11.554;2024-03-08T02:39:43;95475.00;;;14.31;44.95
82555;BME280;72219;48.186;11.554;2024-03-08T02:42:08;95481.34;;;14.28;45.18
82555;BME280;72219;48.186;11.554;2024-03-08T02:44:34;95478.25;;;14.33;44.88
82555;BME280;72219;48.186;11.554;2024-03-08T02:47:00;95478.59;;;14.30;44.86
82555;BME280;72219;48.186;11.554;2024-03-08T02:49:26;95472.75;;;14.28;44.77
82555;BME280;72219;48.186;11.554;2024-03-08T02:51:54;95477.78;;;14.29;44.73
82555;BME280;72219;48.186;11.554;2024-03-08T02:54:22;95475.97;;;14.30;44.89
82555;BME280;72219;48.186;11.554;2024-03-08T02:56:47;95466.38;;;14.30;44.50
82555;BME280;72219;48.186;11.554;2024-03-08T02:59:15;95472.22;;;14.33;44.50
82555;BME280;72219;48.186;11.554;2024-03-08T03:01:43;95470.78;;;14.30;44.91
82555;BME280;72219;48.186;11.554;2024-03-08T03:04:08;95468.97;;;14.30;44.86
82555;BME280;72219;48.186;11.554;2024-03-08T03:06:33;95457.13;;;14.20;44.68
82555;BME280;72219;48.186;11.554;2024-03-08T03:08:59;95474.53;;;14.27;44.72
82555;BME280;72219;48.186;11.554;2024-03-08T03:11:26;95471.28;;;14.25;44.84
82555;BME280;72219;48.186;11.554;2024-03-08T03:13:52;95455.72;;;14.17;44.75
82555;BME280;72219;48.186;11.554;2024-03-08T03:16:21;95459.28;;;14.16;44.78
82555;BME280;72219;48.186;11.554;2024-03-08T03:18:47;95465.59;;;14.22;44.73
82555;BME280;72219;48.186;11.554;2024-03-08T03:21:15;95463.00;;;14.22;44.75
82555;BME280;72219;48.186;11.554;2024-03-08T03:23:42;95457.66;;;14.15;44.79
82555;BME280;72219;48.186;11.554;2024-03-08T03:26:09;95457.97;;;14.20;44.87
82555;BME280;72219;48.186;11.554;2024-03-08T03:28:38;95457.97;;;14.20;44.96
82555;BME280;72219;48.186;11.554;2024-03-08T03:31:07;95457.97;;;14.20;44.69
82555;BME280;72219;48.186;11.554;2024-03-08T03:33:43;95453.25;;;14.24;45.04
82555;BME280;72219;48.186;11.554;2024-03-08T03:36:08;95454.41;;;14.21;44.74
82555;BME280;72219;48.186;11.554;2024-03-08T03:38:35;95450.50;;;14.17;44.61
82555;BME280;72219;48.186;11.554;2024-03-08T03:41:01;95455.53;;;14.19;44.67
82555;BME280;72219;48.186;11.554;2024-03-08T03:43:31;95448.22;;;14.14;44.75
82555;BME280;72219;48.186;11.554;2024-03-08T03:45:57;95445.31;;;14.09;44.80
82555;BME280;72219;48.186;11.554;2024-03-08T03:48:23;95446.94;;;14.10;44.61
82555;BME280;72219;48.186;11.554;2024-03-08T03:50:51;95450.19;;;14.12;44.75
82555;BME280;72219;48.186;11.554;2024-03-08T03:53:16;95446.09;;;14.18;44.71
82555;BME280;72219;48.186;11.554;2024-03-08T03:55:43;95427.25;;;14.07;44.55
82555;BME280;72219;48.186;11.554;2024-03-08T03:58:09;95447.41;;;14.13;44.84
82555;BME280;72219;48.186;11.554;2024-03-08T04:00:35;95436.53;;;14.10;44.79
82555;BME280;72219;48.186;11.554;2024-03-08T04:03:00;95436.19;;;14.13;44.76
82555;BME280;72219;48.186;11.554;2024-03-08T04:05:26;95442.69;;;14.17;44.61
82555;BME280;72219;48.186;11.554;2024-03-08T04:07:51;95445.44;;;14.16;44.78
82555;BME280;72219;48.186;11.554;2024-03-08T04:10:17;95445.63;;;14.14;44.75
82555;BME280;72219;48.186;11.554;2024-03-08T04:12:43;95439.31;;;14.08;44.72
82555;BME280;72219;48.186;11.554;2024-03-08T04:15:13;95441.56;;;14.11;44.67
82555;BME280;72219;48.186;11.554;2024-03-08T04:17:39;95437.34;;;14.10;44.82
82555;BME280;72219;48.186;11.554;2024-03-08T04:20:05;95439.47;;;14.07;44.77
82555;BME280;72219;48.186;11.554;2024-03-08T04:22:36;95431.34;;;14.02;44.94
82555;BME280;72219;48.186;11.554;2024-03-08T04:25:04;95430.88;;;14.06;44.63
82555;BME280;72219;48.186;11.554;2024-03-08T04:27:30;95426.81;;;14.04;44.50
82555;BME280;72219;48.186;11.554;2024-03-08T04:29:57;95428.25;;;14.06;44.81
82555;BME280;72219;48.186;11.554;2024-03-08T04:32:23;95425.81;;;14.05;44.56
82555;BME280;72219;48.186;11.554;2024-03-08T04:34:48;95430.03;;;14.06;44.38
82555;BME280;72219;48.186;11.554;2024-03-08T04:37:15;95429.06;;;14.07;44.63
82555;BME280;72219;48.186;11.554;2024-03-08T04:39:43;95420.59;;;14.05;44.81
82555;BME280;72219;48.186;11.554;2024-03-08T04:42:09;95423.19;;;14.05;44.73
82555;BME280;72219;48.186;11.554;2024-03-08T04:44:36;95424.53;;;14.01;44.71
82555;BME280;72219;48.186;11.554;2024-03-08T04:47:06;95424.69;;;13.99;44.74
82555;BME280;72219;48.186;11.554;2024-03-08T04:49:32;95425.53;;;14.00;44.84
82555;BME280;72219;48.186;11.554;2024-03-08T04:52:01;95416.56;;;13.94;44.81
82555;BME280;72219;48.186;11.554;2024-03-08T04:54:27;95408.31;;;13.90;44.65
82555;BME280;72219;48.186;11.554;2024-03-08T04:56:53;95421.94;;;13.92;44.61
82555;BME280;72219;48.186;11.554;2024-03-08T04:59:19;95422.09;;;13.99;44.75
82555;BME280;72219;48.186;11.554;2024-03-08T05:01:44;95403.09;;;13.90;44.62
82555;BME280;72219;48.186;11.554;2024-03-08T05:04:13;95414.13;;;13.92;44.58
82555;BME280;72219;48.186;11.554;2024-03-08T05:06:38;95409.63;;;13.86;44.57
82555;BME280;72219;48.186;11.554;2024-03-08T05:09:03;95422.44;;;13.96;44.94
82555;BME280;72219;48.186;11.554;2024-03-08T05:11:40;95419.34;;;13.92;44.74
82555;BME280;72219;48.186;11.554;2024-03-08T05:14:07;95417.41;;;13.94;44.55
82555;BME280;72219;48.186;11.554;2024-03-08T05:16:32;95416.44;;;13.95;44.49
82555;BME280;72219;48.186;11.554;2024-03-08T05:18:57;95418.38;;;13.93;44.73
82555;BME280;72219;48.186;11.554;2024-03-08T05:21:23;95420.31;;;13.91;44.72
82555;BME280;72219;48.186;11.554;2024-03-08T05:23:48;95407.34;;;13.83;44.55
82555;BME280;72219;48.186;11.554;2024-03-08T05:26:15;95414.81;;;13.86;44.51
82555;BME280;72219;48.186;11.554;2024-03-08T05:28:41;95394.38;;;13.75;44.81
82555;BME280;72219;48.186;11.554;2024-03-08T05:31:06;95413.97;;;13.94;44.57
82555;BME280;72219;48.186;11.554;2024-03-08T05:33:32;95409.28;;;13.89;44.72
82555;BME280;72219;48.186;11.554;2024-03-08T05:36:00;95412.19;;;13.94;44.46
82555;BME280;72219;48.186;11.554;2024-03-08T05:38:28;95409.59;;;13.94;44.63
82555;BME280;72219;48.186;11.554;2024-03-08T05:40:54;95397.06;;;13.90;44.60
82555;BME280;72219;48.186;11.554;2024-03-08T05:43:20;95407.16;;;13.93;44.64
82555;BME280;72219;48.186;11.554;2024-03-08T05:45:46;95407.31;;;13.91;44.71
82555;BME280;72219;48.186;11.554;2024-03-08T05:48:13;95396.28;;;13.89;44.28
82555;BME280;72219;48.186;11.554;2024-03-08T05:50:39;95409.44;;;13.96;44.46
82555;BME280;72219;48.186;11.554;2024-03-08T05:53:05;95406.03;;;13.95;44.14
82555;BME280;72219;48.186;11.554;2024-03-08T05:55:32;95404.22;;;13.96;44.45
82555;BME280;72219;48.186;11.554;2024-03-08T05:58:00;95402.78;;;13.93;44.46
82555;BME280;72219;48.186;11.554;2024-03-08T06:00:26;95387.81;;;13.87;44.22
82555;BME280;72219;48.186;11.554;2024-03-08T06:02:53;95392.72;;;13.90;44.36
82555;BME280;72219;48.186;11.554;2024-03-08T06:05:18;95390.41;;;13.95;44.27
82555;BME280;72219;48.186;11.554;2024-03-08T06:07:46;95396.41;;;13.96;44.28
82555;BME280;72219;48.186;11.554;2024-03-08T06:10:12;95398.34;;;14.02;44.16
82555;BME280;72219;48.186;11.554;2024-03-08T06:12:39;95400.66;;;13.97;44.23
82555;BME280;72219;48.186;11.554;2024-03-08T06:15:07;95399.16;;;14.03;44.17
82555;BME280;72219;48.186;11.554;2024-03-08T06:17:36;95393.44;;;14.07;44.21
82555;BME280;72219;48.186;11.554;2024-03-08T06:20:02;95394.75;;;14.03;44.16
82555;BME280;72219;48.186;11.554;2024-03-08T06:22:29;95389.91;;;14.00;43.99
82555;BME280;72219;48.186;11.554;2024-03-08T06:24:56;95391.34;;;14.03;44.26
82555;BME280;72219;48.186;11.554;2024-03-08T06:27:22;95389.38;;;14.05;44.13
82555;BME280;72219;48.186;11.554;2024-03-08T06:29:48;95394.44;;;14.06;44.11
82555;BME280;72219;48.186;11.554;2024-03-08T06:32:14;95397.19;;;14.05;44.20
82555;BME280;72219;48.186;11.554;2024-03-08T06:34:40;95400.28;;;14.08;43.98
82555;BME280;72219;48.186;11.554;2024-03-08T06:37:06;95394.91;;;14.10;43.87
82555;BME280;72219;48.186;11.554;2024-03-08T06:39:32;95399.44;;;14.16;43.91
82555;BME280;72219;48.186;11.554;2024-03-08T06:41:57;95394.28;;;14.08;43.86
82555;BME280;72219;48.186;11.554;2024-03-08T06:44:23;95401.38;;;14.14;43.76
82555;BME280;72219;48.186;11.554;2024-03-08T06:46:48;95397.97;;;14.13;43.67
82555;BME280;72219;48.186;11.554;2024-03-08T06:49:14;95401.06;;;14.17;43.87
82555;BME280;72219;48.186;11.554;2024-03-08T06:51:40;95395.19;;;14.15;43.73
82555;BME280;72219;48.186;11.554;2024-03-08T06:54:06;95399.09;;;14.19;43.42
82555;BME280;72219;48.186;11.554;2024-03-08T06:56:34;95405.09;;;14.20;43.35
82555;BME280;72219;48.186;11.554;2024-03-08T06:59:02;95401.03;;;14.25;43.51
82555;BME280;72219;48.186;11.554;2024-03-08T07:01:31;95408.47;;;14.28;43.60
82555;BME280;72219;48.186;11.554;2024-03-08T07:03:57;95397.09;;;14.29;43.28
82555;BME280;72219;48.186;11.554;2024-03-08T07:06:23;95405.88;;;14.28;43.78
82555;BME280;72219;48.186;11.554;2024-03-08T07:08:48;95387.00;;;14.26;43.46
82555;BME280;72219;48.186;11.554;2024-03-08T07:11:14;95394.28;;;14.39;43.38
82555;BME280;72219;48.186;11.554;2024-03-08T07:13:44;95398.00;;;14.45;43.22
82555;BME280;72219;48.186;11.554;2024-03-08T07:16:09;95392.78;;;14.45;42.79
82555;BME280;72219;48.186;11.554;2024-03-08T07:18:37;95388.41;;;14.45;43.07
82555;BME280;72219;48.186;11.554;2024-03-08T07:21:05;95401.53;;;14.52;43.03
82555;BME280;72219;48.186;11.554;2024-03-08T07:23:31;95391.13;;;14.52;42.78
82555;BME280;72219;48.186;11.554;2024-03-08T07:26:19;95400.09;;;14.50;42.88
82555;BME280;72219;48.186;11.554;2024-03-08T07:28:45;95382.19;;;14.46;43.04
82555;BME280;72219;48.186;11.554;2024-03-08T07:31:11;95396.16;;;14.54;42.93
82555;BME280;72219;48.186;11.554;2024-03-08T07:33:52;95393.03;;;14.58;42.86
82555;BME280;72219;48.186;11.554;2024-03-08T07:36:18;95385.22;;;14.58;42.57
82555;BME280;72219;48.186;11.554;2024-03-08T07:38:44;95376.31;;;14.53;42.60
82555;BME280;72219;48.186;11.554;2024-03-08T07:41:12;95374.06;;;14.50;42.60
82555;BME280;72219;48.186;11.554;2024-03-08T07:43:38;95378.91;;;14.53;43.03
82555;BME280;72219;48.186;11.554;2024-03-08T07:46:03;95379.22;;;14.58;42.85
82555;BME280;72219;48.186;11.554;2024-03-08T07:48:28;95386.84;;;14.59;42.82
82555;BME280;72219;48.186;11.554;2024-03-08T07:50:55;95385.88;;;14.60;42.48
82555;BME280;72219;48.186;11.554;2024-03-08T07:53:21;95388.16;;;14.63;42.59
82555;BME280;72219;48.186;11.554;2024-03-08T07:55:46;95387.13;;;14.73;42.69
82555;BME280;72219;48.186;11.554;2024-03-08T07:58:12;95368.41;;;14.69;42.18
82555;BME280;72219;48.186;11.554;2024-03-08T08:00:39;95374.09;;;14.73;42.33
82555;BME280;72219;48.186;11.554;2024-03-08T08:03:05;95369.88;;;14.72;42.51
82555;BME280;72219;48.186;11.554;2024-03-08T08:05:33;95370.66;;;14.72;42.49
82555;BME280;72219;48.186;11.554;2024-03-08T08:08:01;95369.97;;;14.78;42.44
82555;BME280;72219;48.186;11.554;2024-03-08T08:10:28;95362.72;;;14.74;42.13
82555;BME280;72219;48.186;11.554;2024-03-08T08:12:53;95352.00;;;14.69;42.51
82555;BME280;72219;48.186;11.554;2024-03-08T08:15:19;95362.16;;;14.78;42.12
82555;BME280;72219;48.186;11.554;2024-03-08T08:17:45;95350.78;;;14.79;42.14
82555;BME280;72219;48.186;11.554;2024-03-08T08:20:11;95362.28;;;14.85;42.27
82555;BME280;72219;48.186;11.554;2024-03-08T08:22:38;95364.25;;;14.83;42.27
82555;BME280;72219;48.186;11.554;2024-03-08T08:25:05;95362.75;;;14.89;41.91
82555;BME280;72219;48.186;11.554;2024-03-08T08:27:31;95358.69;;;14.86;42.11
82555;BME280;72219;48.186;11.554;2024-03-08T08:29:57;95355.19;;;14.94;42.50
82555;BME280;72219;48.186;11.554;2024-03-08T08:32:22;95345.59;;;14.94;41.79
82555;BME280;72219;48.186;11.554;2024-03-08T08:34:48;95342.06;;;14.87;42.08
82555;BME280;72219;48.186;11.554;2024-03-08T08:37:13;95348.22;;;14.94;42.08
82555;BME280;72219;48.186;11.554;2024-03-08T08:39:39;95343.00;;;14.94;42.22
82555;BME280;72219;48.186;11.554;2024-03-08T08:42:04;95331.03;;;14.85;42.12
82555;BME280;72219;48.186;11.554;2024-03-08T08:44:30;95344.97;;;14.92;41.76
82555;BME280;72219;48.186;11.554;2024-03-08T08:46:57;95320.97;;;14.82;42.29
82555;BME280;72219;48.186;11.554;2024-03-08T08:49:24;95335.00;;;14.96;41.81
82555;BME280;72219;48.186;11.554;2024-03-08T08:51:51;95331.13;;;14.92;42.05
82555;BME280;72219;48.186;11.554;2024-03-08T08:54:17;95333.31;;;15.03;41.63
82555;BME280;72219;48.186;11.554;2024-03-08T08:56:43;95330.81;;;15.10;41.72
82555;BME280;72219;48.186;11.554;2024-03-08T08:59:13;95315.53;;;15.07;41.81
82555;BME280;72219;48.186;11.554;2024-03-08T09:01:44;95311.66;;;15.03;41.50
82555;BME280;72219;48.186;11.554;2024-03-08T09:04:12;95323.06;;;15.02;41.95
82555;BME280;72219;48.186;11.554;2024-03-08T09:06:38;95316.59;;;14.97;42.01
82555;BME280;72219;48.186;11.554;2024-03-08T09:09:07;95319.75;;;15.08;41.87
82555;BME280;72219;48.186;11.554;2024-03-08T09:11:38;95326.53;;;15.17;41.60
82555;BME280;72219;48.186;11.554;2024-03-08T09:14:07;95317.09;;;15.16;41.64
82555;BME280;72219;48.186;11.554;2024-03-08T09:16:33;95316.19;;;15.09;41.98
82555;BME280;72219;48.186;11.554;2024-03-08T09:18:59;95302.94;;;14.95;41.81
82555;BME280;72219;48.186;11.554;2024-03-08T09:21:24;95311.94;;;15.08;42.03
82555;BME280;72219;48.186;11.554;2024-03-08T09:23:50;95281.47;;;14.93;42.03
82555;BME280;72219;48.186;11.554;2024-03-08T09:26:16;95295.34;;;15.09;41.85
82555;BME280;72219;48.186;11.554;2024-03-08T09:28:41;95300.88;;;15.06;41.83
82555;BME280;72219;48.186;11.554;2024-03-08T09:31:07;95288.84;;;15.05;42.01
82555;BME280;72219;48.186;11.554;2024-03-08T09:33:32;95288.69;;;15.06;41.94
82555;BME280;72219;48.186;11.554;2024-03-08T09:35:58;95289.41;;;15.15;41.64
82555;BME280;72219;48.186;11.554;2024-03-08T09:38:23;95281.56;;;15.15;41.38
82555;BME280;72219;48.186;11.554;2024-03-08T09:40:51;95294.25;;;15.18;41.92
82555;BME280;72219;48.186;11.554;2024-03-08T09:43:19;95298.09;;;15.22;41.57
82555;BME280;72219;48.186;11.554;2024-03-08T09:45:45;95288.41;;;15.16;41.50
82555;BME280;72219;48.186;11.554;2024-03-08T09:48:12;95281.13;;;15.11;41.50
82555;BME280;72219;48.186;11.554;2024-03-08T09:50:39;95279.06;;;15.22;41.72
82555;BME280;72219;48.186;11.554;2024-03-08T09:53:04;95284.75;;;15.25;41.36
82555;BME280;72219;48.186;11.554;2024-03-08T09:55:35;95287.16;;;15.27;41.69
82555;BME280;72219;48.186;11.554;2024-03-08T09:58:05;95280.97;;;15.28;41.66
82555;BME280;72219;48.186;11.554;2024-03-08T10:00:54;95279.72;;;15.24;41.71
82555;BME280;72219;48.186;11.554;2024-03-08T10:03:22;95226.56;;;14.95;41.44
82555;BME280;72219;48.186;11.554;2024-03-08T10:05:48;95178.50;;;14.68;41.33
82555;BME280;72219;48.186;11.554;2024-03-08T10:08:14;95278.78;;;15.31;41.43
82555;BME280;72219;48.186;11.554;2024-03-08T10:10:40;95235.47;;;15.01;41.40
82555;BME280;72219;48.186;11.554;2024-03-08T10:13:09;95279.06;;;15.37;41.72
82555;BME280;72219;48.186;11.554;2024-03-08T10:15:36;95273.84;;;15.37;41.52
82555;BME280;72219;48.186;11.554;2024-03-08T10:18:03;95273.75;;;15.30;41.20
82555;BME280;72219;48.186;11.554;2024-03-08T10:20:30;95268.81;;;15.35;41.76
82555;BME280;72219;48.186;11.554;2024-03-08T10:23:11;95262.00;;;15.34;41.53
82555;BME280;72219;48.186;11.554;2024-03-08T10:25:42;95258.03;;;15.38;41.14
82555;BME280;72219;48.186;11.554;2024-03-08T10:28:08;95252.56;;;15.48;41.02
82555;BME280;72219;48.186;11.554;2024-03-08T10:30:33;95257.94;;;15.46;41.22
82555;BME280;72219;48.186;11.554;2024-03-08T10:32:59;95237.44;;;15.43;41.38
82555;BME280;72219;48.186;11.554;2024-03-08T10:35:24;95244.81;;;15.40;41.50
82555;BME280;72219;48.186;11.554;2024-03-08T10:37:52;95247.06;;;15.43;41.31
82555;BME280;72219;48.186;11.554;2024-03-08T10:40:29;95253.81;;;15.52;40.98
82555;BME280;72219;48.186;11.554;2024-03-08T10:42:59;95232.88;;;15.45;41.01
82555;BME280;72219;48.186;11.554;2024-03-08T10:45:42;95227.56;;;15.39;41.56
82555;BME280;72219;48.186;11.554;2024-03-08T10:48:29;95238.59;;;15.56;41.35
82555;BME280;72219;48.186;11.554;2024-03-08T10:50:59;95244.19;;;15.53;41.13
82555;BME280;72219;48.186;11.554;2024-03-08T10:53:29;95236.09;;;15.47;41.10
82555;BME280;72219;48.186;11.554;2024-03-08T10:55:58;95231.34;;;15.51;41.00
82555;BME280;72219;48.186;11.554;2024-03-08T10:58:43;95231.59;;;15.56;41.00
82555;BME280;72219;48.186;11.554;2024-03-08T11:01:09;95222.59;;;15.59;41.21
82555;BME280;72219;48.186;11.554;2024-03-08T11:06:08;95212.97;;;15.59;40.88
82555;BME280;72219;48.186;11.554;2024-03-08T11:08:36;95226.88;;;15.67;41.12
82555;BME280;72219;48.186;11.554;2024-03-08T11:11:02;95223.94;;;15.70;40.96
82555;BME280;72219;48.186;11.554;2024-03-08T11:13:39;95212.59;;;15.62;40.80
82555;BME280;72219;48.186;11.554;2024-03-08T11:16:10;95189.94;;;15.63;40.99
82555;BME280;72219;48.186;11.554;2024-03-08T11:18:37;95200.19;;;15.64;40.96
82555;BME280;72219;48.186;11.554;2024-03-08T11:21:04;95197.84;;;15.70;40.97
82555;BME280;72219;48.186;11.554;2024-03-08T11:23:33;95186.06;;;15.74;40.69
82555;BME280;72219;48.186;11.554;2024-03-08T11:25:59;95196.22;;;15.84;40.42
82555;BME280;72219;48.186;11.554;2024-03-08T11:28:25;95192.81;;;15.83;40.83
82555;BME280;72219;48.186;11.554;2024-03-08T11:33:27;95175.72;;;15.80;40.37
82555;BME280;72219;48.186;11.554;2024-03-08T11:36:11;95186.66;;;15.91;40.27
82555;BME280;72219;48.186;11.554;2024-03-08T11:38:45;95180.81;;;15.89;40.93
82555;BME280;72219;48.186;11.554;2024-03-08T11:41:16;95167.59;;;15.90;40.88
82555;BME280;72219;48.186;11.554;2024-03-08T11:43:43;95170.44;;;15.95;40.71
82555;BME280;72219;48.186;11.554;2024-03-08T11:46:13;95163.41;;;15.96;40.71
82555;BME280;72219;48.186;11.554;2024-03-08T11:48:43;95167.84;;;15.95;40.70
82555;BME280;72219;48.186;11.554;2024-03-08T11:51:15;95160.38;;;15.92;40.36
82555;BME280;72219;48.186;11.554;2024-03-08T11:53:41;95166.22;;;15.94;40.65
82555;BME280;72219;48.186;11.554;2024-03-08T11:56:10;95178.75;;;16.06;40.25
82555;BME280;72219;48.186;11.554;2024-03-08T11:58:37;95161.50;;;16.05;40.19
82555;BME280;72219;48.186;11.554;2024-03-08T12:01:06;95163.34;;;16.11;40.19
82555;BME280;72219;48.186;11.554;2024-03-08T12:03:33;95150.06;;;16.06;40.16
82555;BME280;72219;48.186;11.554;2024-03-08T12:06:03;95159.19;;;16.17;40.21
82555;BME280;72219;48.186;11.554;2024-03-08T12:08:32;95149.91;;;16.14;40.15
82555;BME280;72219;48.186;11.554;2024-03-08T12:10:58;95145.72;;;16.13;40.49
82555;BME280;72219;48.186;11.554;2024-03-08T12:13:30;95144.53;;;16.16;40.39
82555;BME280;72219;48.186;11.554;2024-03-08T12:16:00;95136.13;;;16.20;40.39
82555;BME280;72219;48.186;11.554;2024-03-08T12:18:26;95128.94;;;16.22;39.82
82555;BME280;72219;48.186;11.554;2024-03-08T12:21:07;95136.97;;;16.27;40.10
82555;BME280;72219;48.186;11.554;2024-03-08T12:23:39;95145.63;;;16.28;39.86
82555;BME280;72219;48.186;11.554;2024-03-08T12:26:15;95131.16;;;16.25;40.01
82555;BME280;72219;48.186;11.554;2024-03-08T12:28:42;95131.75;;;16.27;40.03
82555;BME280;72219;48.186;11.554;2024-03-08T12:31:16;95135.44;;;16.33;39.88
82555;BME280;72219;48.186;11.554;2024-03-08T12:33:54;95102.81;;;16.22;40.42
82555;BME280;72219;48.186;11.554;2024-03-08T12:36:21;95104.31;;;16.38;40.02
82555;BME280;72219;48.186;11.554;2024-03-08T12:38:47;95112.41;;;16.43;39.82
82555;BME280;72219;48.186;11.554;2024-03-08T12:41:18;95090.88;;;16.35;40.08
82555;BME280;72219;48.186;11.554;2024-03-08T12:43:45;95109.00;;;16.43;39.77
82555;BME280;72219;48.186;11.554;2024-03-08T12:46:21;95102.19;;;16.48;40.10
82555;BME280;72219;48.186;11.554;2024-03-08T12:48:47;95083.69;;;16.43;39.84
82555;BME280;72219;48.186;11.554;2024-03-08T12:51:16;95086.97;;;16.52;40.25
82555;BME280;72219;48.186;11.554;2024-03-08T12:53:43;95090.16;;;16.54;39.60
82555;BME280;72219;48.186;11.554;2024-03-08T12:56:13;95070.06;;;16.48;39.86